Time;durP1;ratioP1;P1;durP2;ratioP2;P2;SDS_P1;SDS_P2;PMS_P1;PMS_P2;Temp;Humidity;BMP_temperature;BMP_pressure;BME280_temperature;BME280_humidity;BME280_pressure;Samples;Min_cycle;Max_cycle;Signal;HPM_P1;HPM_P2
2023/12/29 00:01:15;;;;;;;;;;;18.10;62.00;;;;;;5034216;28;43167;-82
2023/12/29 00:03:40;;;;;;;;;;;18.00;61.90;;;;;;5029831;28;42915;-82
2023/12/29 00:06:06;;;;;;;;;;;18.10;61.90;;;;;;5031069;28;42916;-83
2023/12/29 00:08:32;;;;;;;;;;;17.90;62.10;;;;;;5031228;28;42946;-83
2023/12/29 00:10:58;;;;;;;;;;;18.20;61.90;;;;;;5033733;28;43975;-84
2023/12/29 00:13:25;;;;;;;;;;;18.10;61.90;;;;;;5033511;28;43122;-84
2023/12/29 00:15:54;;;;;;;;;;;18.30;62.10;;;;;;5030362;28;43264;-83
2023/12/29 00:18:20;;;;;;;;;;;18.00;60.40;;;;;;5032765;28;43015;-83
2023/12/29 00:20:45;;;;;;;;;;;18.00;61.90;;;;;;5038594;28;44635;-82
2023/12/29 00:23:11;;;;;;;;;;;18.00;61.80;;;;;;5033960;28;42965;-81
2023/12/29 00:25:37;;;;;;;;;;;18.10;61.90;;;;;;5033056;28;42965;-83
2023/12/29 00:28:03;;;;;;;;;;;17.90;61.70;;;;;;5032562;28;43064;-82
2023/12/29 00:30:29;;;;;;;;;;;17.90;61.90;;;;;;5023489;28;43805;-84
2023/12/29 00:32:58;;;;;;;;;;;18.00;61.60;;;;;;5026424;28;43003;-83
2023/12/29 00:35:23;;;;;;;;;;;18.10;61.80;;;;;;5027040;28;43151;-82
2023/12/29 00:37:51;;;;;;;;;;;18.10;61.80;;;;;;5027313;28;42998;-83
2023/12/29 00:40:17;;;;;;;;;;;17.90;60.00;;;;;;5026274;28;43390;-83
2023/12/29 00:42:42;;;;;;;;;;;18.10;61.70;;;;;;5029000;28;43026;-85
2023/12/29 00:45:08;;;;;;;;;;;18.10;61.80;;;;;;5033215;28;42898;-83
2023/12/29 00:47:34;;;;;;;;;;;18.10;61.80;;;;;;5036401;28;42950;-84
2023/12/29 00:50:00;;;;;;;;;;;18.10;61.70;;;;;;5037106;28;43122;-84
2023/12/29 00:52:25;;;;;;;;;;;18.00;61.70;;;;;;5035191;28;43159;-85
2023/12/29 00:54:51;;;;;;;;;;;18.10;61.80;;;;;;5036730;28;43287;-84
2023/12/29 00:57:16;;;;;;;;;;;13.40;59.00;;;;;;5036818;28;42959;-84
2023/12/29 00:59:43;;;;;;;;;;;18.10;61.80;;;;;;5035910;28;42939;-83
2023/12/29 01:02:09;;;;;;;;;;;18.00;61.70;;;;;;5036690;28;42972;-84
2023/12/29 01:04:37;;;;;;;;;;;18.00;61.60;;;;;;5035419;28;43616;-84
2023/12/29 01:07:03;;;;;;;;;;;18.00;61.60;;;;;;5041864;28;42929;-82
2023/12/29 01:09:28;;;;;;;;;;;18.10;61.60;;;;;;5036271;28;44444;-82
2023/12/29 01:11:54;;;;;;;;;;;18.10;61.80;;;;;;5033994;28;42931;-82
2023/12/29 01:14:19;;;;;;;;;;;18.00;61.80;;;;;;5025838;28;43367;-84
2023/12/29 01:16:45;;;;;;;;;;;18.00;61.70;;;;;;5025436;28;42872;-82
2023/12/29 01:19:10;;;;;;;;;;;18.10;61.70;;;;;;5025665;28;43087;-83
2023/12/29 01:21:39;;;;;;;;;;;18.10;61.80;;;;;;5026057;28;42908;-83
2023/12/29 01:24:06;;;;;;;;;;;17.90;61.70;;;;;;5033327;28;43003;-81
2023/12/29 01:26:31;;;;;;;;;;;17.90;61.60;;;;;;5034010;28;43061;-81
2023/12/29 01:28:57;;;;;;;;;;;18.20;61.80;;;;;;5034179;28;43980;-83
2023/12/29 01:31:22;;;;;;;;;;;18.10;61.70;;;;;;5036519;28;42919;-83
2023/12/29 01:33:48;;;;;;;;;;;18.00;61.60;;;;;;5035877;28;42992;-83
2023/12/29 01:36:17;;;;;;;;;;;18.10;61.80;;;;;;5032052;28;42980;-81
2023/12/29 01:38:43;;;;;;;;;;;18.00;59.90;;;;;;5036319;28;43450;-83
2023/12/29 01:41:08;;;;;;;;;;;18.00;61.50;;;;;;5029472;28;43026;-81
2023/12/29 01:43:34;;;;;;;;;;;18.00;61.40;;;;;;5025024;28;42903;-81
2023/12/29 01:45:59;;;;;;;;;;;18.00;61.80;;;;;;5024906;28;43001;-81
2023/12/29 01:48:25;;;;;;;;;;;18.10;61.30;;;;;;5024947;28;43085;-82
2023/12/29 01:50:51;;;;;;;;;;;18.10;61.50;;;;;;5025143;28;42931;-81
2023/12/29 01:53:17;;;;;;;;;;;17.80;62.00;;;;;;5025652;28;43375;-85
2023/12/29 01:55:42;;;;;;;;;;;20.30;63.00;;;;;;5027349;28;42937;-82
2023/12/29 01:58:08;;;;;;;;;;;18.10;61.60;;;;;;5032641;28;44647;-84
2023/12/29 02:00:34;;;;;;;;;;;17.80;61.50;;;;;;5029621;28;42893;-81
2023/12/29 02:03:00;;;;;;;;;;;18.00;61.40;;;;;;5025975;28;43057;-80
2023/12/29 02:05:26;;;;;;;;;;;18.10;61.50;;;;;;5025595;28;42998;-81
2023/12/29 02:07:53;;;;;;;;;;;18.00;61.40;;;;;;5029305;28;43055;-83
2023/12/29 02:10:19;;;;;;;;;;;18.00;61.30;;;;;;5036177;28;42997;-84
2023/12/29 02:12:46;;;;;;;;;;;18.10;61.50;;;;;;5034892;28;43462;-85
2023/12/29 02:15:11;;;;;;;;;;;18.10;62.10;;;;;;5045540;28;42960;-82
2023/12/29 02:17:41;;;;;;;;;;;18.10;61.50;;;;;;5045364;28;43863;-83
2023/12/29 02:20:07;;;;;;;;;;;18.00;61.40;;;;;;5043621;28;42970;-82
2023/12/29 02:22:32;;;;;;;;;;;17.90;61.40;;;;;;5044778;28;42879;-82
2023/12/29 02:24:58;;;;;;;;;;;17.90;61.40;;;;;;5045274;28;43133;-84
2023/12/29 02:27:42;;;;;;;;;;;18.00;61.40;;;;;;5045676;28;44694;-84
2023/12/29 02:30:08;;;;;;;;;;;17.90;61.50;;;;;;5044240;28;43086;-82
2023/12/29 02:32:34;;;;;;;;;;;18.00;61.40;;;;;;5043577;28;43246;-86
2023/12/29 02:35:01;;;;;;;;;;;18.20;61.70;;;;;;5045637;28;43001;-85
2023/12/29 02:37:27;;;;;;;;;;;18.00;61.50;;;;;;5044191;28;42922;-85
2023/12/29 02:39:52;;;;;;;;;;;17.90;61.30;;;;;;5044716;28;42944;-85
2023/12/29 02:42:18;;;;;;;;;;;18.10;61.60;;;;;;5045234;28;42789;-85
2023/12/29 02:44:43;;;;;;;;;;;17.90;61.40;;;;;;5045940;28;42868;-82
2023/12/29 02:47:09;;;;;;;;;;;18.00;61.50;;;;;;5044922;28;43771;-82
2023/12/29 02:49:34;;;;;;;;;;;17.90;61.30;;;;;;5044983;28;42965;-84
2023/12/29 02:52:00;;;;;;;;;;;18.20;61.50;;;;;;5044704;28;42759;-81
2023/12/29 02:54:25;;;;;;;;;;;17.90;61.40;;;;;;5036418;28;43150;-83
2023/12/29 02:56:51;;;;;;;;;;;18.00;61.90;;;;;;5036279;28;42929;-82
2023/12/29 02:59:16;;;;;;;;;;;17.90;61.50;;;;;;5044633;28;42931;-82
2023/12/29 03:01:42;;;;;;;;;;;18.10;61.50;;;;;;5044516;28;43632;-83
2023/12/29 03:04:07;;;;;;;;;;;18.00;61.40;;;;;;5044869;28;42968;-83
2023/12/29 03:06:33;;;;;;;;;;;18.00;61.40;;;;;;5042434;28;43147;-82
2023/12/29 03:08:58;;;;;;;;;;;18.10;61.20;;;;;;5045006;28;42887;-82
2023/12/29 03:11:24;;;;;;;;;;;17.90;60.80;;;;;;5043809;28;43782;-83
2023/12/29 03:13:49;;;;;;;;;;;18.10;61.30;;;;;;5043907;28;42959;-82
2023/12/29 03:16:15;;;;;;;;;;;17.70;61.20;;;;;;5044315;28;42950;-82
2023/12/29 03:18:41;;;;;;;;;;;17.90;61.20;;;;;;5044096;28;42932;-83
2023/12/29 03:21:07;;;;;;;;;;;17.80;61.30;;;;;;5044342;28;43042;-84
2023/12/29 03:23:33;;;;;;;;;;;18.00;61.30;;;;;;5044237;28;43095;-83
2023/12/29 03:25:58;;;;;;;;;;;18.10;61.30;;;;;;5044177;28;43947;-83
2023/12/29 03:28:24;;;;;;;;;;;17.80;61.20;;;;;;5044106;28;43090;-83
2023/12/29 03:30:49;;;;;;;;;;;17.90;61.30;;;;;;5043985;28;43646;-83
2023/12/29 03:33:15;;;;;;;;;;;18.00;61.30;;;;;;5044141;28;43006;-83
2023/12/29 03:35:40;;;;;;;;;;;17.80;61.10;;;;;;5044112;28;43569;-83
2023/12/29 03:38:06;;;;;;;;;;;18.00;61.30;;;;;;5043987;28;42956;-84
2023/12/29 03:40:31;;;;;;;;;;;18.00;61.30;;;;;;5044413;28;43446;-82
2023/12/29 03:42:57;;;;;;;;;;;17.70;61.10;;;;;;5044464;28;42885;-85
2023/12/29 03:45:22;;;;;;;;;;;17.90;61.20;;;;;;5044260;28;43057;-82
2023/12/29 03:47:48;;;;;;;;;;;18.00;61.30;;;;;;5043165;28;43236;-83
2023/12/29 03:50:13;;;;;;;;;;;17.90;61.20;;;;;;5044896;28;43423;-83
2023/12/29 03:52:39;;;;;;;;;;;18.00;61.30;;;;;;5043829;28;42902;-83
2023/12/29 03:55:05;;;;;;;;;;;17.90;61.20;;;;;;5044435;28;44063;-84
2023/12/29 03:57:30;;;;;;;;;;;18.00;61.30;;;;;;5044670;28;42990;-83
2023/12/29 03:59:56;;;;;;;;;;;18.10;61.30;;;;;;5044490;28;43614;-84
2023/12/29 04:02:21;;;;;;;;;;;17.90;61.30;;;;;;5044771;28;43072;-84
2023/12/29 04:04:47;;;;;;;;;;;17.80;61.10;;;;;;5044075;28;42924;-81
2023/12/29 04:07:12;;;;;;;;;;;17.90;61.30;;;;;;5046848;28;43583;-84
2023/12/29 04:09:38;;;;;;;;;;;18.00;61.30;;;;;;5047770;28;43256;-82
2023/12/29 04:12:03;;;;;;;;;;;17.90;61.30;;;;;;5048126;28;43052;-84
2023/12/29 04:14:29;;;;;;;;;;;17.80;61.00;;;;;;5047720;28;43107;-81
2023/12/29 04:16:54;;;;;;;;;;;17.80;61.20;;;;;;5054265;28;42942;-83
2023/12/29 04:19:20;;;;;;;;;;;17.80;61.10;;;;;;5052271;28;42814;-82
2023/12/29 04:21:45;;;;;;;;;;;17.90;61.10;;;;;;5046673;28;43133;-83
2023/12/29 04:24:11;;;;;;;;;;;17.90;61.20;;;;;;5046854;28;43846;-84
2023/12/29 04:26:36;;;;;;;;;;;17.90;61.10;;;;;;5047082;28;42814;-82
2023/12/29 04:29:02;;;;;;;;;;;17.90;61.20;;;;;;5045842;28;42954;-83
2023/12/29 04:31:28;;;;;;;;;;;17.90;61.10;;;;;;5062799;28;43077;-82
2023/12/29 04:33:53;;;;;;;;;;;18.00;61.30;;;;;;5047052;28;42903;-81
2023/12/29 04:36:18;;;;;;;;;;;17.90;61.10;;;;;;5047511;28;42884;-82
2023/12/29 04:38:44;;;;;;;;;;;17.90;61.10;;;;;;5043831;28;43532;-84
2023/12/29 04:41:11;;;;;;;;;;;17.90;61.20;;;;;;5045816;28;42963;-82
2023/12/29 04:43:37;;;;;;;;;;;17.80;61.10;;;;;;5046768;28;43193;-82
2023/12/29 04:46:03;;;;;;;;;;;18.10;61.20;;;;;;5047857;28;42946;-81
2023/12/29 04:48:28;;;;;;;;;;;;;;;;;;5046888;28;43460;-86
2023/12/29 04:50:54;;;;;;;;;;;17.90;59.10;;;;;;5047189;28;42805;-82
2023/12/29 04:53:19;;;;;;;;;;;17.90;61.10;;;;;;5046688;28;43563;-82
2023/12/29 04:55:45;;;;;;;;;;;17.70;61.00;;;;;;5046767;28;42869;-83
2023/12/29 04:58:10;;;;;;;;;;;17.90;61.00;;;;;;5047002;28;43674;-82
2023/12/29 05:00:36;;;;;;;;;;;18.00;61.10;;;;;;5046991;28;42874;-83
2023/12/29 05:03:01;;;;;;;;;;;17.70;61.50;;;;;;5047032;28;42819;-82
2023/12/29 05:05:27;;;;;;;;;;;18.00;61.10;;;;;;5047434;28;42910;-83
2023/12/29 05:07:52;;;;;;;;;;;17.90;61.10;;;;;;5047073;28;42870;-80
2023/12/29 05:10:18;;;;;;;;;;;17.90;61.60;;;;;;5047035;28;42981;-82
2023/12/29 05:12:43;;;;;;;;;;;18.00;61.20;;;;;;5046717;28;43589;-82
2023/12/29 05:15:09;;;;;;;;;;;17.90;61.10;;;;;;5045099;28;42976;-82
2023/12/29 05:17:34;;;;;;;;;;;17.70;61.00;;;;;;5045338;28;43324;-82
2023/12/29 05:20:00;;;;;;;;;;;17.90;61.10;;;;;;5046001;28;43142;-83
2023/12/29 05:22:25;;;;;;;;;;;17.80;61.30;;;;;;5046381;28;42976;-82
2023/12/29 05:24:51;;;;;;;;;;;17.70;61.00;;;;;;5044791;28;43018;-82
2023/12/29 05:27:18;;;;;;;;;;;17.80;61.00;;;;;;5044482;28;43815;-83
2023/12/29 05:29:43;;;;;;;;;;;17.80;61.10;;;;;;5046443;28;42831;-83
2023/12/29 05:32:09;;;;;;;;;;;17.90;61.00;;;;;;5046399;28;43680;-83
2023/12/29 05:34:35;;;;;;;;;;;17.90;61.00;;;;;;5046656;28;42942;-83
2023/12/29 05:37:00;;;;;;;;;;;17.80;60.90;;;;;;5061461;28;43046;-83
2023/12/29 05:39:26;;;;;;;;;;;17.90;61.00;;;;;;5046505;28;42809;-83
2023/12/29 05:41:51;;;;;;;;;;;17.90;61.10;;;;;;5045659;28;42932;-83
2023/12/29 05:44:17;;;;;;;;;;;17.80;61.10;;;;;;5061424;28;42953;-83
2023/12/29 05:46:45;;;;;;;;;;;18.10;61.30;;;;;;5061798;28;45503;-84
2023/12/29 05:49:11;;;;;;;;;;;17.80;61.20;;;;;;5044598;28;43069;-83
2023/12/29 05:51:36;;;;;;;;;;;17.90;61.20;;;;;;5045902;28;43567;-83
2023/12/29 05:54:02;;;;;;;;;;;17.70;61.00;;;;;;5046402;28;42819;-84
2023/12/29 05:56:27;;;;;;;;;;;17.80;61.50;;;;;;5045887;28;43415;-84
2023/12/29 05:58:53;;;;;;;;;;;17.80;61.00;;;;;;5046155;28;42914;-83
2023/12/29 06:01:19;;;;;;;;;;;17.70;61.00;;;;;;5043224;28;43460;-88
2023/12/29 06:03:44;;;;;;;;;;;17.90;61.10;;;;;;5036123;28;42943;-85
2023/12/29 06:06:10;;;;;;;;;;;17.70;61.30;;;;;;5043416;28;43201;-86
2023/12/29 06:08:35;;;;;;;;;;;17.80;61.60;;;;;;5045040;28;43015;-85
2023/12/29 06:11:01;;;;;;;;;;;17.80;61.70;;;;;;5026019;28;43137;-85
2023/12/29 06:13:29;;;;;;;;;;;17.70;61.60;;;;;;5029046;28;42949;-86
2023/12/29 06:15:55;;;;;;;;;;;18.00;61.90;;;;;;5036215;28;43675;-86
2023/12/29 06:18:21;;;;;;;;;;;17.70;61.70;;;;;;5024095;28;42887;-87
2023/12/29 06:20:46;;;;;;;;;;;17.80;61.80;;;;;;5030076;28;46071;-86
2023/12/29 06:23:12;;;;;;;;;;;17.80;61.80;;;;;;5026579;28;43094;-85
2023/12/29 06:25:39;;;;;;;;;;;17.90;61.90;;;;;;5033938;28;44544;-87
2023/12/29 06:28:06;;;;;;;;;;;17.70;61.90;;;;;;5039923;28;43044;-86
2023/12/29 06:30:31;;;;;;;;;;;17.90;62.10;;;;;;5036165;28;42997;-86
2023/12/29 06:32:57;;;;;;;;;;;17.90;62.20;;;;;;5037139;28;42962;-86
2023/12/29 06:35:23;;;;;;;;;;;17.90;62.10;;;;;;5041811;28;43867;-86
2023/12/29 06:37:48;;;;;;;;;;;18.00;62.30;;;;;;5036235;28;42955;-86
2023/12/29 06:40:16;;;;;;;;;;;17.80;62.20;;;;;;5033668;28;43020;-85
2023/12/29 06:42:41;;;;;;;;;;;17.80;62.00;;;;;;5032404;28;43137;-86
2023/12/29 06:45:08;;;;;;;;;;;17.70;62.10;;;;;;5030835;28;43855;-87
2023/12/29 06:47:33;;;;;;;;;;;17.90;62.30;;;;;;5030558;28;43018;-84
2023/12/29 06:49:59;;;;;;;;;;;18.00;62.40;;;;;;5034792;28;44140;-86
2023/12/29 06:52:25;;;;;;;;;;;17.90;62.20;;;;;;5043509;28;42918;-88
2023/12/29 06:54:51;;;;;;;;;;;17.90;62.20;;;;;;5044568;28;42937;-84
2023/12/29 06:57:17;;;;;;;;;;;17.90;62.10;;;;;;5044373;28;42904;-83
2023/12/29 06:59:42;;;;;;;;;;;17.70;62.20;;;;;;5044640;28;43356;-84
2023/12/29 07:02:08;;;;;;;;;;;18.00;62.30;;;;;;5041095;28;42863;-83
2023/12/29 07:04:35;;;;;;;;;;;17.80;60.70;;;;;;5035693;28;42926;-86
2023/12/29 07:07:04;;;;;;;;;;;17.60;47.00;;;;;;5031557;28;43053;-91
2023/12/29 07:09:31;;;;;;;;;;;16.90;45.40;;;;;;5033407;28;64661;-89
2023/12/29 07:11:57;;;;;;;;;;;16.80;45.70;;;;;;5035510;28;43050;-90
2023/12/29 07:14:22;;;;;;;;;;;16.50;45.10;;;;;;5033468;28;43397;-91
2023/12/29 07:16:48;;;;;;;;;;;16.30;45.30;;;;;;5033218;28;42934;-88
2023/12/29 07:19:14;;;;;;;;;;;16.10;45.10;;;;;;5032901;28;44070;-89
2023/12/29 07:21:39;;;;;;;;;;;15.80;45.20;;;;;;5032201;28;43037;-91
2023/12/29 07:24:05;;;;;;;;;;;15.80;45.50;;;;;;5034143;28;44160;-88
2023/12/29 07:26:32;;;;;;;;;;;15.40;45.70;;;;;;5032332;28;43625;-89
2023/12/29 07:28:58;;;;;;;;;;;15.20;45.80;;;;;;5034675;28;42943;-90
2023/12/29 07:31:23;;;;;;;;;;;15.10;46.30;;;;;;5034486;28;42963;-91
2023/12/29 07:33:49;;;;;;;;;;;15.20;46.50;;;;;;5035722;28;43046;-90
2023/12/29 07:36:15;;;;;;;;;;;15.00;47.00;;;;;;5030016;28;43202;-90
2023/12/29 07:38:40;;;;;;;;;;;15.20;48.80;;;;;;5034330;28;44787;-90
2023/12/29 07:41:06;;;;;;;;;;;15.30;50.80;;;;;;5034917;28;43393;-88
2023/12/29 07:43:31;;;;;;;;;;;15.50;51.80;;;;;;5038709;28;42851;-91
2023/12/29 07:45:57;;;;;;;;;;;15.60;52.00;;;;;;5035192;28;42972;-90
2023/12/29 07:48:23;;;;;;;;;;;15.70;52.70;;;;;;5038100;28;43016;-89
2023/12/29 07:50:48;;;;;;;;;;;16.20;53.40;;;;;;5047320;28;42939;-89
2023/12/29 07:53:14;;;;;;;;;;;;;;;;;;5047507;28;43027;-89
2023/12/29 07:55:40;;;;;;;;;;;;;;;;;;5045184;28;43026;-88
2023/12/29 07:58:06;;;;;;;;;;;16.30;53.50;;;;;;5039755;28;42962;-89
2023/12/29 08:00:33;;;;;;;;;;;16.60;53.70;;;;;;5035944;28;43145;-89
2023/12/29 08:02:59;;;;;;;;;;;16.60;53.60;;;;;;5039006;28;43861;-88
2023/12/29 08:05:25;;;;;;;;;;;16.80;53.60;;;;;;5036947;28;43300;-90
2023/12/29 08:07:54;;;;;;;;;;;17.00;53.20;;;;;;5034578;28;44141;-91
2023/12/29 08:10:20;;;;;;;;;;;17.00;53.60;;;;;;5036223;28;43142;-92
2023/12/29 08:12:49;;;;;;;;;;;17.00;53.50;;;;;;5037343;28;43034;-91
2023/12/29 08:15:14;;;;;;;;;;;16.90;53.60;;;;;;5036070;28;43014;-93
2023/12/29 08:17:40;;;;;;;;;;;17.00;53.60;;;;;;5035509;28;45563;-92
2023/12/29 08:20:06;;;;;;;;;;;16.90;53.80;;;;;;5035784;28;42963;-92
2023/12/29 08:22:32;;;;;;;;;;;17.20;53.50;;;;;;5037666;28;43604;-92
2023/12/29 08:24:58;;;;;;;;;;;17.20;53.70;;;;;;5037600;28;42878;-91
2023/12/29 08:27:25;;;;;;;;;;;17.20;53.80;;;;;;5035133;28;45451;-92
2023/12/29 08:29:51;;;;;;;;;;;17.00;53.70;;;;;;5035336;28;43016;-93
2023/12/29 08:32:16;;;;;;;;;;;17.10;53.80;;;;;;5036476;28;43992;-91
2023/12/29 08:34:42;;;;;;;;;;;;;;;;;;5035323;28;43064;-89
2023/12/29 08:37:08;;;;;;;;;;;17.30;54.10;;;;;;5036893;28;43659;-90
2023/12/29 08:39:33;;;;;;;;;;;17.30;54.10;;;;;;5058533;28;43072;-88
2023/12/29 08:41:59;;;;;;;;;;;17.20;54.30;;;;;;5036567;28;43987;-86
2023/12/29 08:44:25;;;;;;;;;;;17.30;54.40;;;;;;5036442;28;42953;-87
2023/12/29 08:46:50;;;;;;;;;;;17.30;54.50;;;;;;5037562;28;43522;-87
2023/12/29 08:49:16;;;;;;;;;;;17.30;54.60;;;;;;5035473;28;42942;-86
2023/12/29 08:51:41;;;;;;;;;;;17.20;54.60;;;;;;5039931;28;43056;-90
2023/12/29 08:54:07;;;;;;;;;;;17.30;53.70;;;;;;5036098;28;42942;-90
2023/12/29 08:56:32;;;;;;;;;;;17.00;49.60;;;;;;5026776;28;43951;-88
2023/12/29 08:58:58;;;;;;;;;;;16.60;49.40;;;;;;5027762;28;42866;-92
2023/12/29 09:01:26;;;;;;;;;;;16.30;50.60;;;;;;5025685;28;44173;-90
2023/12/29 09:03:54;;;;;;;;;;;16.20;51.40;;;;;;5025741;28;42902;-93
2023/12/29 09:06:20;;;;;;;;;;;16.20;51.70;;;;;;5035240;28;42891;-92
2023/12/29 09:08:49;;;;;;;;;;;16.50;52.00;;;;;;5035510;28;42856;-95
2023/12/29 09:11:17;;;;;;;;;;;16.60;52.10;;;;;;5033739;28;44624;-94
2023/12/29 09:13:43;;;;;;;;;;;16.60;52.20;;;;;;5038818;28;42828;-92
2023/12/29 09:16:16;;;;;;;;;;;16.90;52.20;;;;;;5034137;28;44579;-94
2023/12/29 09:18:50;;;;;;;;;;;14.60;50.20;;;;;;5035828;28;42997;-92
2023/12/29 09:21:16;;;;;;;;;;;16.70;52.10;;;;;;5025297;28;44360;-92
2023/12/29 09:23:41;;;;;;;;;;;16.80;52.30;;;;;;5026270;28;43107;-93
2023/12/29 09:26:07;;;;;;;;;;;16.70;52.40;;;;;;5027473;28;43027;-93
2023/12/29 09:28:53;;;;;;;;;;;16.90;52.90;;;;;;5025813;28;43029;-94
2023/12/29 09:31:22;;;;;;;;;;;16.90;52.90;;;;;;5031300;28;44593;-94
2023/12/29 09:33:47;;;;;;;;;;;17.00;52.80;;;;;;5032304;28;42965;-87
2023/12/29 09:36:13;;;;;;;;;;;17.00;53.20;;;;;;5040039;28;44714;-90
2023/12/29 09:38:43;;;;;;;;;;;17.20;53.30;;;;;;5034685;28;42979;-89
2023/12/29 09:41:11;;;;;;;;;;;17.00;53.20;;;;;;5033573;28;43041;-89
2023/12/29 09:43:37;;;;;;;;;;;17.10;52.50;;;;;;5033984;28;43143;-90
2023/12/29 09:46:07;;;;;;;;;;;17.20;53.70;;;;;;5040140;28;45517;-83
2023/12/29 09:48:59;;;;;;;;;;;17.10;52.60;;;;;;5033570;28;42959;-92
2023/12/29 09:51:24;;;;;;;;;;;17.20;53.70;;;;;;5036670;28;44216;-92
2023/12/29 09:53:51;;;;;;;;;;;17.00;53.90;;;;;;5032030;28;42944;-93
2023/12/29 09:56:17;;;;;;;;;;;17.30;54.30;;;;;;5035311;28;43522;-93
2023/12/29 09:58:48;;;;;;;;;;;17.30;54.60;;;;;;5032906;28;42930;-94
2023/12/29 10:01:14;;;;;;;;;;;17.30;54.70;;;;;;5032538;28;45458;-93
2023/12/29 10:03:46;;;;;;;;;;;17.30;54.60;;;;;;5037497;28;43044;-91
2023/12/29 10:06:13;;;;;;;;;;;17.20;54.60;;;;;;5043606;28;42903;-93
2023/12/29 10:08:41;;;;;;;;;;;17.30;54.50;;;;;;5044687;28;42991;-92
2023/12/29 10:11:07;;;;;;;;;;;17.30;54.40;;;;;;5044232;28;44762;-93
2023/12/29 10:13:46;;;;;;;;;;;;;;;;;;;;;
2023/12/29 10:16:41;;;;;;;;;;;17.40;54.10;;;;;;5024952;28;69859;-94
2023/12/29 10:19:24;;;;;;;;;;;17.30;54.20;;;;;;4986102;28;43318;-94
2023/12/29 10:22:02;;;;;;;;;;;19.10;55.10;;;;;;4962548;28;45186;-93
2023/12/29 10:24:30;;;;;;;;;;;17.40;54.50;;;;;;4945309;28;43156;-92
2023/12/29 10:26:59;;;;;;;;;;;17.30;54.40;;;;;;4951023;28;45144;-94
2023/12/29 10:29:26;;;;;;;;;;;17.30;54.50;;;;;;4935657;28;43401;-92
2023/12/29 10:31:52;;;;;;;;;;;17.40;54.50;;;;;;4944684;28;43929;-85
2023/12/29 10:34:28;;;;;;;;;;;17.30;54.70;;;;;;4963072;28;43103;-86
2023/12/29 10:36:53;;;;;;;;;;;17.30;54.90;;;;;;4960516;28;43052;-83
2023/12/29 10:39:19;;;;;;;;;;;17.40;55.70;;;;;;4963294;28;43086;-89
2023/12/29 10:41:45;;;;;;;;;;;17.50;52.50;;;;;;4963422;28;43509;-90
2023/12/29 10:44:11;;;;;;;;;;;17.50;51.00;;;;;;4962977;28;42838;-89
2023/12/29 10:46:36;;;;;;;;;;;17.30;50.60;;;;;;4979919;28;43123;-88
2023/12/29 10:49:11;;;;;;;;;;;17.30;52.40;;;;;;4990396;28;44099;-87
2023/12/29 10:51:37;;;;;;;;;;;17.30;55.10;;;;;;4991728;28;43914;-88
2023/12/29 10:54:03;;;;;;;;;;;17.30;55.30;;;;;;4976408;28;43086;-87
2023/12/29 10:56:29;;;;;;;;;;;;;;;;;;5006215;28;42982;-88
2023/12/29 10:59:11;;;;;;;;;;;17.30;55.60;;;;;;5014435;28;42955;-88
2023/12/29 11:01:39;;;;;;;;;;;17.30;55.60;;;;;;5014281;28;43063;-88
2023/12/29 11:04:05;;;;;;;;;;;17.40;55.60;;;;;;5014024;28;43055;-88
2023/12/29 11:06:31;;;;;;;;;;;;;;;;;;5014154;28;43041;-88
2023/12/29 11:08:57;;;;;;;;;;;;;;;;;;5023725;28;43079;-87
2023/12/29 11:11:23;;;;;;;;;;;17.40;55.90;;;;;;5024807;28;45300;-88
2023/12/29 11:13:58;;;;;;;;;;;;;;;;;;5020892;28;42971;-83
2023/12/29 11:16:24;;;;;;;;;;;17.60;55.80;;;;;;5023640;28;42891;-86
2023/12/29 11:18:52;;;;;;;;;;;17.50;55.70;;;;;;5023907;28;42850;-85
2023/12/29 11:21:19;;;;;;;;;;;17.20;55.80;;;;;;5023866;28;43176;-85
2023/12/29 11:23:44;;;;;;;;;;;17.40;56.00;;;;;;5025089;28;43091;-89
2023/12/29 11:26:10;;;;;;;;;;;17.40;56.10;;;;;;5025096;28;43337;-84
2023/12/29 11:28:36;;;;;;;;;;;17.40;56.20;;;;;;5025470;28;42946;-85
2023/12/29 11:31:02;;;;;;;;;;;17.50;56.30;;;;;;5024720;28;43082;-87
2023/12/29 11:33:51;;;;;;;;;;;17.30;56.30;;;;;;5017071;28;43443;-83
2023/12/29 11:36:20;;;;;;;;;;;17.30;56.30;;;;;;5027587;28;45437;-80
2023/12/29 11:39:01;;;;;;;;;;;17.40;55.40;;;;;;5004751;28;42993;-84
2023/12/29 11:41:39;;;;;;;;;;;17.40;54.20;;;;;;5019623;28;44536;-81
2023/12/29 11:44:05;;;;;;;;;;;17.60;55.50;;;;;;5004610;28;43051;-80
2023/12/29 11:46:45;;;;;;;;;;;17.30;55.10;;;;;;5004601;28;42993;-80
2023/12/29 11:49:11;;;;;;;;;;;17.40;54.40;;;;;;5005111;28;42949;-80
2023/12/29 11:51:40;;;;;;;;;;;17.40;56.00;;;;;;5004557;28;42885;-81
2023/12/29 11:54:06;;;;;;;;;;;17.30;54.50;;;;;;5004229;28;43603;-80
2023/12/29 11:56:41;;;;;;;;;;;16.90;55.80;;;;;;5003916;28;42947;-81
2023/12/29 11:59:13;;;;;;;;;;;17.30;54.60;;;;;;5004122;28;42951;-80
2023/12/29 12:01:39;;;;;;;;;;;17.30;54.60;;;;;;5004339;28;43544;-81
2023/12/29 12:04:24;;;;;;;;;;;17.30;56.20;;;;;;5004137;28;42908;-81
2023/12/29 12:06:50;;;;;;;;;;;17.30;56.10;;;;;;5004211;28;42991;-79
2023/12/29 12:09:18;;;;;;;;;;;17.30;56.10;;;;;;5005036;28;42920;-83
2023/12/29 12:11:44;;;;;;;;;;;17.30;55.80;;;;;;5004136;28;43554;-83
2023/12/29 12:14:09;;;;;;;;;;;17.30;55.90;;;;;;5009524;28;43150;-82
2023/12/29 12:16:45;;;;;;;;;;;17.50;56.10;;;;;;5011259;28;43496;-82
2023/12/29 12:19:11;;;;;;;;;;;17.40;56.00;;;;;;5018057;28;43030;-82
2023/12/29 12:21:37;;;;;;;;;;;17.40;56.00;;;;;;5010918;28;43080;-81
2023/12/29 12:24:03;;;;;;;;;;;17.40;56.60;;;;;;5020585;28;43121;-82
2023/12/29 12:26:30;;;;;;;;;;;17.40;56.20;;;;;;5021058;28;43665;-82
2023/12/29 12:28:55;;;;;;;;;;;17.10;56.00;;;;;;5027200;28;42987;-83
2023/12/29 12:31:21;;;;;;;;;;;17.50;56.20;;;;;;5025988;28;43000;-82
2023/12/29 12:33:56;;;;;;;;;;;17.40;56.20;;;;;;5027052;28;42988;-82
2023/12/29 12:36:21;;;;;;;;;;;17.50;56.30;;;;;;5025236;28;45018;-82
2023/12/29 12:38:54;;;;;;;;;;;17.30;56.20;;;;;;5026404;28;42983;-82
2023/12/29 12:41:22;;;;;;;;;;;17.40;56.40;;;;;;5025260;28;43076;-82
2023/12/29 12:44:03;;;;;;;;;;;17.50;56.20;;;;;;5020192;28;43110;-81
2023/12/29 12:46:33;;;;;;;;;;;17.40;56.30;;;;;;5024881;28;43133;-82
2023/12/29 12:48:59;;;;;;;;;;;17.50;56.40;;;;;;5020143;28;43182;-83
2023/12/29 12:51:25;;;;;;;;;;;17.30;56.40;;;;;;5017176;28;42928;-83
2023/12/29 12:53:51;;;;;;;;;;;17.60;56.50;;;;;;5021003;28;43000;-82
2023/12/29 12:56:19;;;;;;;;;;;17.40;56.40;;;;;;5013612;28;44400;-82
2023/12/29 12:58:45;;;;;;;;;;;17.60;56.40;;;;;;5007700;28;42971;-82
2023/12/29 13:01:10;;;;;;;;;;;17.40;56.40;;;;;;5017190;28;42896;-81
2023/12/29 13:03:38;;;;;;;;;;;17.50;56.50;;;;;;5009648;28;43158;-81
2023/12/29 13:06:04;;;;;;;;;;;17.50;56.40;;;;;;5013798;28;43768;-81
2023/12/29 13:08:30;;;;;;;;;;;17.60;56.60;;;;;;5021530;28;43143;-81
2023/12/29 13:10:56;;;;;;;;;;;17.70;56.60;;;;;;5009597;28;44064;-82
2023/12/29 13:13:22;;;;;;;;;;;17.60;56.50;;;;;;5007931;28;43048;-81
2023/12/29 13:15:48;;;;;;;;;;;17.70;56.60;;;;;;5008749;28;43114;-82
2023/12/29 13:18:14;;;;;;;;;;;17.80;55.90;;;;;;5010645;28;42959;-82
2023/12/29 13:20:58;;;;;;;;;;;17.60;56.60;;;;;;5009552;28;43070;-82
2023/12/29 13:23:24;;;;;;;;;;;;;;;;;;5010574;28;42931;-80
2023/12/29 13:25:54;;;;;;;;;;;17.60;56.70;;;;;;5010897;28;42987;-81
2023/12/29 13:28:19;;;;;;;;;;;17.70;56.80;;;;;;5031656;28;42884;-82
2023/12/29 13:30:46;;;;;;;;;;;17.70;56.90;;;;;;5020430;28;43034;-81
2023/12/29 13:33:16;;;;;;;;;;;17.60;56.80;;;;;;5011835;28;42912;-80
2023/12/29 13:35:47;;;;;;;;;;;17.60;56.80;;;;;;5019688;28;43418;-80
2023/12/29 13:38:22;;;;;;;;;;;17.70;56.70;;;;;;5008217;28;42962;-81
2023/12/29 13:40:57;;;;;;;;;;;17.70;55.50;;;;;;5018487;28;43565;-80
2023/12/29 13:43:22;;;;;;;;;;;17.60;55.40;;;;;;5014332;28;43555;-79
2023/12/29 13:45:48;;;;;;;;;;;17.70;57.30;;;;;;5016144;28;43890;-79
2023/12/29 13:48:15;;;;;;;;;;;17.50;57.10;;;;;;5016346;28;43014;-79
2023/12/29 13:50:46;;;;;;;;;;;17.50;57.20;;;;;;5012912;28;43458;-79
2023/12/29 13:53:18;;;;;;;;;;;17.50;57.20;;;;;;5021950;28;43083;-78
2023/12/29 13:55:44;;;;;;;;;;;17.50;55.50;;;;;;5015371;28;43716;-78
2023/12/29 13:58:10;;;;;;;;;;;17.50;57.20;;;;;;5015514;28;42913;-77
2023/12/29 14:00:37;;;;;;;;;;;17.70;57.00;;;;;;5014435;28;44551;-78
2023/12/29 14:03:05;;;;;;;;;;;17.60;56.90;;;;;;5015693;28;42965;-78
2023/12/29 14:05:47;;;;;;;;;;;17.60;57.30;;;;;;5015865;28;42960;-77
2023/12/29 14:08:24;;;;;;;;;;;17.60;55.70;;;;;;5015183;28;42886;-77
2023/12/29 14:10:50;;;;;;;;;;;17.60;55.80;;;;;;5014103;28;44620;-78
2023/12/29 14:13:16;;;;;;;;;;;17.70;57.50;;;;;;5014576;28;42874;-77
2023/12/29 14:15:42;;;;;;;;;;;17.60;57.00;;;;;;5015343;28;43188;-77
2023/12/29 14:18:27;;;;;;;;;;;17.70;57.10;;;;;;5015143;28;43144;-77
2023/12/29 14:20:52;;;;;;;;;;;17.70;57.30;;;;;;5014131;28;42971;-78